sensor_id;sensor_type;location;lat;lon;timestamp;P1;durP1;ratioP1;P2;durP2;ratioP2
10872;SDS011;34586;53.616;10.032;2022-12-24T00:01:12;20.43;;;12.70;;
10872;SDS011;34586;53.616;10.032;2022-12-24T00:03:38;20.63;;;12.80;;
10872;SDS011;34586;53.616;10.032;2022-12-24T00:06:07;25.83;;;12.63;;
10872;SDS011;34586;53.616;10.032;2022-12-24T00:08:36;22.47;;;13.17;;
10872;SDS011;34586;53.616;10.032;2022-12-24T00:11:02;23.07;;;12.97;;
10872;SDS011;34586;53.616;10.032;2022-12-24T00:13:27;21.10;;;12.33;;
10872;SDS011;34586;53.616;10.032;2022-12-24T00:15:53;25.43;;;13.70;;
10872;SDS011;34586;53.616;10.032;2022-12-24T00:18:19;22.80;;;12.63;;
10872;SDS011;34586;53.616;10.032;2022-12-24T00:20:48;24.77;;;12.97;;
10872;SDS011;34586;53.616;10.032;2022-12-24T00:23:14;24.00;;;12.90;;
10872;SDS011;34586;53.616;10.032;2022-12-24T00:25:41;22.10;;;12.57;;
10872;SDS011;34586;53.616;10.032;2022-12-24T00:28:06;25.23;;;13.83;;
10872;SDS011;34586;53.616;10.032;2022-12-24T00:30:32;23.97;;;12.47;;
10872;SDS011;34586;53.616;10.032;2022-12-24T00:32:57;26.23;;;13.27;;
10872;SDS011;34586;53.616;10.032;2022-12-24T00:35:23;23.90;;;12.50;;
10872;SDS011;34586;53.616;10.032;2022-12-24T00:37:49;25.70;;;12.70;;
10872;SDS011;34586;53.616;10.032;2022-12-24T00:40:15;23.77;;;12.77;;
10872;SDS011;34586;53.616;10.032;2022-12-24T00:42:41;23.37;;;13.03;;
10872;SDS011;34586;53.616;10.032;2022-12-24T00:45:07;23.63;;;12.17;;
10872;SDS011;34586;53.616;10.032;2022-12-24T00:47:33;22.97;;;12.37;;
10872;SDS011;34586;53.616;10.032;2022-12-24T00:49:58;22.80;;;12.00;;
10872;SDS011;34586;53.616;10.032;2022-12-24T00:52:24;24.20;;;12.63;;
10872;SDS011;34586;53.616;10.032;2022-12-24T00:54:50;22.27;;;12.93;;
10872;SDS011;34586;53.616;10.032;2022-12-24T00:57:15;29.37;;;13.40;;
10872;SDS011;34586;53.616;10.032;2022-12-24T00:59:41;26.53;;;12.80;;
10872;SDS011;34586;53.616;10.032;2022-12-24T01:02:07;22.90;;;12.70;;
10872;SDS011;34586;53.616;10.032;2022-12-24T01:04:32;26.27;;;12.60;;
10872;SDS011;34586;53.616;10.032;2022-12-24T01:07:16;27.53;;;13.13;;
10872;SDS011;34586;53.616;10.032;2022-12-24T01:09:43;26.83;;;13.90;;
10872;SDS011;34586;53.616;10.032;2022-12-24T01:12:08;24.33;;;13.07;;
10872;SDS011;34586;53.616;10.032;2022-12-24T01:14:34;26.73;;;12.93;;
10872;SDS011;34586;53.616;10.032;2022-12-24T01:17:01;26.37;;;12.60;;
10872;SDS011;34586;53.616;10.032;2022-12-24T01:19:27;25.43;;;12.60;;
10872;SDS011;34586;53.616;10.032;2022-12-24T01:21:52;27.87;;;12.30;;
10872;SDS011;34586;53.616;10.032;2022-12-24T01:24:18;23.40;;;12.30;;
10872;SDS011;34586;53.616;10.032;2022-12-24T01:26:44;22.47;;;12.93;;
10872;SDS011;34586;53.616;10.032;2022-12-24T01:29:09;27.13;;;12.97;;
10872;SDS011;34586;53.616;10.032;2022-12-24T01:31:35;28.37;;;13.93;;
10872;SDS011;34586;53.616;10.032;2022-12-24T01:34:01;25.80;;;13.13;;
10872;SDS011;34586;53.616;10.032;2022-12-24T01:36:26;27.43;;;12.73;;
10872;SDS011;34586;53.616;10.032;2022-12-24T01:38:52;25.80;;;12.63;;
10872;SDS011;34586;53.616;10.032;2022-12-24T01:41:19;24.93;;;12.87;;
10872;SDS011;34586;53.616;10.032;2022-12-24T01:47:05;28.37;;;14.03;;
10872;SDS011;34586;53.616;10.032;2022-12-24T01:49:31;25.97;;;13.07;;
10872;SDS011;34586;53.616;10.032;2022-12-24T01:51:59;23.70;;;12.50;;
10872;SDS011;34586;53.616;10.032;2022-12-24T01:54:33;23.07;;;12.17;;
10872;SDS011;34586;53.616;10.032;2022-12-24T01:57:04;22.70;;;12.57;;
10872;SDS011;34586;53.616;10.032;2022-12-24T01:59:33;23.20;;;12.47;;
10872;SDS011;34586;53.616;10.032;2022-12-24T02:02:01;26.87;;;12.90;;
10872;SDS011;34586;53.616;10.032;2022-12-24T02:04:41;23.27;;;12.93;;
10872;SDS011;34586;53.616;10.032;2022-12-24T02:07:13;25.17;;;12.30;;
10872;SDS011;34586;53.616;10.032;2022-12-24T02:09:39;25.07;;;12.33;;
10872;SDS011;34586;53.616;10.032;2022-12-24T02:12:05;21.20;;;11.63;;
10872;SDS011;34586;53.616;10.032;2022-12-24T02:14:31;23.07;;;12.40;;
10872;SDS011;34586;53.616;10.032;2022-12-24T02:17:19;25.97;;;12.80;;
10872;SDS011;34586;53.616;10.032;2022-12-24T02:26:33;24.57;;;11.70;;
10872;SDS011;34586;53.616;10.032;2022-12-24T02:38:33;23.20;;;10.97;;
10872;SDS011;34586;53.616;10.032;2022-12-24T02:41:08;20.83;;;11.63;;
10872;SDS011;34586;53.616;10.032;2022-12-24T02:43:37;22.50;;;12.03;;
10872;SDS011;34586;53.616;10.032;2022-12-24T02:46:10;21.43;;;11.30;;
10872;SDS011;34586;53.616;10.032;2022-12-24T02:48:43;19.97;;;11.27;;
10872;SDS011;34586;53.616;10.032;2022-12-24T02:51:11;18.60;;;11.10;;
10872;SDS011;34586;53.616;10.032;2022-12-24T02:53:37;20.43;;;10.97;;
10872;SDS011;34586;53.616;10.032;2022-12-24T02:56:47;17.53;;;10.40;;
10872;SDS011;34586;53.616;10.032;2022-12-24T03:04:47;18.87;;;11.30;;
10872;SDS011;34586;53.616;10.032;2022-12-24T03:10:03;17.60;;;10.63;;
10872;SDS011;34586;53.616;10.032;2022-12-24T03:12:43;13.40;;;8.90;;
10872;SDS011;34586;53.616;10.032;2022-12-24T03:15:19;21.43;;;10.00;;
10872;SDS011;34586;53.616;10.032;2022-12-24T03:17:48;18.20;;;9.90;;
10872;SDS011;34586;53.616;10.032;2022-12-24T03:20:20;15.97;;;9.93;;
10872;SDS011;34586;53.616;10.032;2022-12-24T03:22:49;16.43;;;9.43;;
10872;SDS011;34586;53.616;10.032;2022-12-24T03:25:15;16.17;;;9.70;;
10872;SDS011;34586;53.616;10.032;2022-12-24T03:27:40;15.80;;;9.60;;
10872;SDS011;34586;53.616;10.032;2022-12-24T03:30:09;17.13;;;8.83;;
10872;SDS011;34586;53.616;10.032;2022-12-24T03:32:37;14.00;;;9.03;;
10872;SDS011;34586;53.616;10.032;2022-12-24T03:35:03;15.00;;;8.20;;
10872;SDS011;34586;53.616;10.032;2022-12-24T03:37:30;14.07;;;8.57;;
10872;SDS011;34586;53.616;10.032;2022-12-24T03:39:55;13.30;;;8.53;;
10872;SDS011;34586;53.616;10.032;2022-12-24T03:42:21;16.17;;;8.67;;
10872;SDS011;34586;53.616;10.032;2022-12-24T03:44:46;12.40;;;8.50;;
10872;SDS011;34586;53.616;10.032;2022-12-24T03:47:12;13.33;;;8.60;;
10872;SDS011;34586;53.616;10.032;2022-12-24T03:49:37;15.60;;;8.33;;
10872;SDS011;34586;53.616;10.032;2022-12-24T03:52:03;12.63;;;8.07;;
10872;SDS011;34586;53.616;10.032;2022-12-24T03:54:29;11.30;;;7.73;;
10872;SDS011;34586;53.616;10.032;2022-12-24T03:56:54;13.00;;;8.10;;
10872;SDS011;34586;53.616;10.032;2022-12-24T03:59:20;13.00;;;8.60;;
10872;SDS011;34586;53.616;10.032;2022-12-24T04:01:45;12.20;;;8.43;;
10872;SDS011;34586;53.616;10.032;2022-12-24T04:04:11;12.40;;;8.37;;
10872;SDS011;34586;53.616;10.032;2022-12-24T04:06:36;13.73;;;7.93;;
10872;SDS011;34586;53.616;10.032;2022-12-24T04:09:02;13.03;;;8.37;;
10872;SDS011;34586;53.616;10.032;2022-12-24T04:11:29;12.00;;;7.67;;
10872;SDS011;34586;53.616;10.032;2022-12-24T04:13:56;11.63;;;7.50;;
10872;SDS011;34586;53.616;10.032;2022-12-24T04:16:22;11.47;;;7.47;;
10872;SDS011;34586;53.616;10.032;2022-12-24T04:18:47;12.90;;;7.67;;
10872;SDS011;34586;53.616;10.032;2022-12-24T04:21:14;11.73;;;8.00;;
10872;SDS011;34586;53.616;10.032;2022-12-24T04:23:40;11.10;;;7.70;;
10872;SDS011;34586;53.616;10.032;2022-12-24T04:26:07;12.97;;;8.03;;
10872;SDS011;34586;53.616;10.032;2022-12-24T04:28:34;11.47;;;7.83;;
10872;SDS011;34586;53.616;10.032;2022-12-24T04:31:01;13.57;;;8.03;;
10872;SDS011;34586;53.616;10.032;2022-12-24T04:33:29;13.93;;;8.40;;
10872;SDS011;34586;53.616;10.032;2022-12-24T04:35:58;12.73;;;8.17;;
10872;SDS011;34586;53.616;10.032;2022-12-24T04:38:25;10.83;;;7.60;;
10872;SDS011;34586;53.616;10.032;2022-12-24T04:41:01;11.87;;;7.87;;
10872;SDS011;34586;53.616;10.032;2022-12-24T04:43:31;11.67;;;7.20;;
10872;SDS011;34586;53.616;10.032;2022-12-24T04:46:03;10.87;;;7.43;;
10872;SDS011;34586;53.616;10.032;2022-12-24T04:48:30;10.17;;;7.63;;
10872;SDS011;34586;53.616;10.032;2022-12-24T04:50:56;10.77;;;7.40;;
10872;SDS011;34586;53.616;10.032;2022-12-24T04:53:25;11.80;;;7.63;;
10872;SDS011;34586;53.616;10.032;2022-12-24T04:55:51;11.70;;;7.63;;
10872;SDS011;34586;53.616;10.032;2022-12-24T04:58:16;11.70;;;7.73;;
10872;SDS011;34586;53.616;10.032;2022-12-24T05:00:42;13.23;;;7.50;;
10872;SDS011;34586;53.616;10.032;2022-12-24T05:03:07;10.20;;;6.80;;
10872;SDS011;34586;53.616;10.032;2022-12-24T05:05:33;11.70;;;7.77;;
10872;SDS011;34586;53.616;10.032;2022-12-24T05:07:58;12.03;;;7.37;;
10872;SDS011;34586;53.616;10.032;2022-12-24T05:10:24;11.53;;;8.10;;
10872;SDS011;34586;53.616;10.032;2022-12-24T05:12:50;10.33;;;7.50;;
10872;SDS011;34586;53.616;10.032;2022-12-24T05:15:15;11.00;;;7.77;;
10872;SDS011;34586;53.616;10.032;2022-12-24T05:17:41;12.87;;;8.13;;
10872;SDS011;34586;53.616;10.032;2022-12-24T05:20:06;10.57;;;7.43;;
10872;SDS011;34586;53.616;10.032;2022-12-24T05:22:32;12.53;;;8.03;;
10872;SDS011;34586;53.616;10.032;2022-12-24T05:25:16;13.90;;;8.57;;
10872;SDS011;34586;53.616;10.032;2022-12-24T05:28:00;12.90;;;8.23;;
10872;SDS011;34586;53.616;10.032;2022-12-24T05:30:26;10.40;;;7.30;;
10872;SDS011;34586;53.616;10.032;2022-12-24T05:32:52;13.50;;;8.33;;
10872;SDS011;34586;53.616;10.032;2022-12-24T05:35:17;18.20;;;12.63;;
10872;SDS011;34586;53.616;10.032;2022-12-24T05:37:43;13.20;;;8.93;;
10872;SDS011;34586;53.616;10.032;2022-12-24T05:40:08;11.23;;;7.70;;
10872;SDS011;34586;53.616;10.032;2022-12-24T05:42:34;10.30;;;8.13;;
10872;SDS011;34586;53.616;10.032;2022-12-24T05:45:00;14.53;;;8.97;;
10872;SDS011;34586;53.616;10.032;2022-12-24T05:47:26;13.47;;;8.73;;
10872;SDS011;34586;53.616;10.032;2022-12-24T05:49:51;12.07;;;8.10;;
10872;SDS011;34586;53.616;10.032;2022-12-24T05:52:17;12.57;;;8.77;;
10872;SDS011;34586;53.616;10.032;2022-12-24T05:54:42;13.50;;;8.50;;
10872;SDS011;34586;53.616;10.032;2022-12-24T05:57:08;11.73;;;8.03;;
10872;SDS011;34586;53.616;10.032;2022-12-24T05:59:33;12.07;;;8.00;;
10872;SDS011;34586;53.616;10.032;2022-12-24T06:01:59;12.27;;;8.83;;
10872;SDS011;34586;53.616;10.032;2022-12-24T06:04:25;12.90;;;8.53;;
10872;SDS011;34586;53.616;10.032;2022-12-24T06:06:50;10.80;;;8.13;;
10872;SDS011;34586;53.616;10.032;2022-12-24T06:09:16;11.43;;;8.27;;
10872;SDS011;34586;53.616;10.032;2022-12-24T06:11:42;12.90;;;7.90;;
10872;SDS011;34586;53.616;10.032;2022-12-24T06:14:07;11.43;;;7.33;;
10872;SDS011;34586;53.616;10.032;2022-12-24T06:16:33;10.70;;;7.83;;
10872;SDS011;34586;53.616;10.032;2022-12-24T06:18:58;12.10;;;7.90;;
10872;SDS011;34586;53.616;10.032;2022-12-24T06:21:24;14.00;;;7.87;;
10872;SDS011;34586;53.616;10.032;2022-12-24T06:23:50;11.10;;;7.40;;
10872;SDS011;34586;53.616;10.032;2022-12-24T06:26:16;11.93;;;8.20;;
10872;SDS011;34586;53.616;10.032;2022-12-24T06:28:43;10.10;;;7.70;;
10872;SDS011;34586;53.616;10.032;2022-12-24T06:31:10;10.97;;;7.77;;
10872;SDS011;34586;53.616;10.032;2022-12-24T06:33:38;10.57;;;7.20;;
10872;SDS011;34586;53.616;10.032;2022-12-24T06:36:08;10.47;;;6.90;;
10872;SDS011;34586;53.616;10.032;2022-12-24T06:38:37;11.70;;;7.47;;
10872;SDS011;34586;53.616;10.032;2022-12-24T06:41:05;8.63;;;6.93;;
10872;SDS011;34586;53.616;10.032;2022-12-24T06:43:32;9.33;;;7.10;;
10872;SDS011;34586;53.616;10.032;2022-12-24T06:46:01;7.33;;;6.33;;
10872;SDS011;34586;53.616;10.032;2022-12-24T06:48:27;9.53;;;6.93;;
10872;SDS011;34586;53.616;10.032;2022-12-24T06:50:53;7.50;;;6.03;;
10872;SDS011;34586;53.616;10.032;2022-12-24T06:53:19;7.63;;;6.30;;
10872;SDS011;34586;53.616;10.032;2022-12-24T06:55:44;9.00;;;6.50;;
10872;SDS011;34586;53.616;10.032;2022-12-24T06:58:10;7.73;;;6.03;;
10872;SDS011;34586;53.616;10.032;2022-12-24T07:00:36;7.63;;;6.27;;
10872;SDS011;34586;53.616;10.032;2022-12-24T07:03:02;7.33;;;6.30;;
10872;SDS011;34586;53.616;10.032;2022-12-24T07:05:27;6.43;;;5.57;;
10872;SDS011;34586;53.616;10.032;2022-12-24T07:07:53;8.50;;;6.47;;
10872;SDS011;34586;53.616;10.032;2022-12-24T07:10:19;7.40;;;5.80;;
10872;SDS011;34586;53.616;10.032;2022-12-24T07:12:46;8.33;;;5.90;;
10872;SDS011;34586;53.616;10.032;2022-12-24T07:15:12;6.90;;;6.10;;
10872;SDS011;34586;53.616;10.032;2022-12-24T07:17:38;6.90;;;5.73;;
10872;SDS011;34586;53.616;10.032;2022-12-24T07:20:04;7.07;;;5.50;;
10872;SDS011;34586;53.616;10.032;2022-12-24T07:22:32;6.53;;;5.50;;
10872;SDS011;34586;53.616;10.032;2022-12-24T07:24:58;6.40;;;5.40;;
10872;SDS011;34586;53.616;10.032;2022-12-24T07:27:23;6.53;;;5.50;;
10872;SDS011;34586;53.616;10.032;2022-12-24T07:29:49;6.37;;;5.07;;
10872;SDS011;34586;53.616;10.032;2022-12-24T07:32:14;7.00;;;5.40;;
10872;SDS011;34586;53.616;10.032;2022-12-24T07:34:40;6.13;;;4.73;;
10872;SDS011;34586;53.616;10.032;2022-12-24T07:37:06;7.13;;;5.27;;
10872;SDS011;34586;53.616;10.032;2022-12-24T07:39:32;6.00;;;5.27;;
10872;SDS011;34586;53.616;10.032;2022-12-24T07:41:57;8.27;;;5.40;;
10872;SDS011;34586;53.616;10.032;2022-12-24T07:44:23;6.77;;;4.97;;
10872;SDS011;34586;53.616;10.032;2022-12-24T07:46:49;5.47;;;4.73;;
10872;SDS011;34586;53.616;10.032;2022-12-24T07:49:14;5.27;;;4.77;;
10872;SDS011;34586;53.616;10.032;2022-12-24T07:51:40;5.30;;;4.77;;
10872;SDS011;34586;53.616;10.032;2022-12-24T07:54:06;6.17;;;5.40;;
10872;SDS011;34586;53.616;10.032;2022-12-24T07:56:31;7.20;;;5.00;;
10872;SDS011;34586;53.616;10.032;2022-12-24T07:58:57;6.00;;;5.03;;
10872;SDS011;34586;53.616;10.032;2022-12-24T08:01:23;5.77;;;5.17;;
10872;SDS011;34586;53.616;10.032;2022-12-24T08:03:49;5.77;;;5.00;;
10872;SDS011;34586;53.616;10.032;2022-12-24T08:06:19;5.33;;;4.50;;
10872;SDS011;34586;53.616;10.032;2022-12-24T08:08:45;5.30;;;4.63;;
10872;SDS011;34586;53.616;10.032;2022-12-24T08:11:11;4.90;;;4.40;;
10872;SDS011;34586;53.616;10.032;2022-12-24T08:13:37;6.47;;;5.00;;
10872;SDS011;34586;53.616;10.032;2022-12-24T08:16:02;5.27;;;4.47;;
10872;SDS011;34586;53.616;10.032;2022-12-24T08:18:28;4.40;;;4.00;;
10872;SDS011;34586;53.616;10.032;2022-12-24T08:20:54;5.37;;;4.60;;
10872;SDS011;34586;53.616;10.032;2022-12-24T08:23:19;4.80;;;4.40;;
10872;SDS011;34586;53.616;10.032;2022-12-24T08:25:46;5.20;;;4.57;;
10872;SDS011;34586;53.616;10.032;2022-12-24T08:28:13;5.67;;;4.90;;
10872;SDS011;34586;53.616;10.032;2022-12-24T08:30:40;4.87;;;4.47;;
10872;SDS011;34586;53.616;10.032;2022-12-24T08:33:06;5.40;;;4.90;;
10872;SDS011;34586;53.616;10.032;2022-12-24T08:35:32;5.33;;;4.83;;
10872;SDS011;34586;53.616;10.032;2022-12-24T08:37:58;5.27;;;4.77;;
10872;SDS011;34586;53.616;10.032;2022-12-24T08:40:23;5.00;;;4.50;;
10872;SDS011;34586;53.616;10.032;2022-12-24T08:42:49;4.70;;;4.30;;
10872;SDS011;34586;53.616;10.032;2022-12-24T08:45:14;5.53;;;4.70;;
10872;SDS011;34586;53.616;10.032;2022-12-24T08:47:40;5.20;;;4.70;;
10872;SDS011;34586;53.616;10.032;2022-12-24T08:50:06;4.73;;;4.33;;
10872;SDS011;34586;53.616;10.032;2022-12-24T08:52:32;5.13;;;4.63;;
10872;SDS011;34586;53.616;10.032;2022-12-24T08:54:58;4.77;;;4.30;;
10872;SDS011;34586;53.616;10.032;2022-12-24T08:57:24;5.40;;;4.90;;
10872;SDS011;34586;53.616;10.032;2022-12-24T08:59:49;4.80;;;4.40;;
10872;SDS011;34586;53.616;10.032;2022-12-24T09:02:15;5.33;;;4.47;;
10872;SDS011;34586;53.616;10.032;2022-12-24T09:04:41;7.13;;;4.97;;
10872;SDS011;34586;53.616;10.032;2022-12-24T09:07:07;5.00;;;4.60;;
10872;SDS011;34586;53.616;10.032;2022-12-24T09:09:34;5.67;;;4.70;;
10872;SDS011;34586;53.616;10.032;2022-12-24T09:12:00;5.83;;;4.90;;
10872;SDS011;34586;53.616;10.032;2022-12-24T09:14:28;5.33;;;4.83;;
10872;SDS011;34586;53.616;10.032;2022-12-24T09:16:53;4.97;;;4.50;;
10872;SDS011;34586;53.616;10.032;2022-12-24T09:19:19;5.27;;;4.77;;
10872;SDS011;34586;53.616;10.032;2022-12-24T09:21:45;6.77;;;6.17;;
10872;SDS011;34586;53.616;10.032;2022-12-24T09:24:10;5.40;;;4.90;;
10872;SDS011;34586;53.616;10.032;2022-12-24T09:26:36;5.97;;;5.37;;
10872;SDS011;34586;53.616;10.032;2022-12-24T09:29:02;5.00;;;4.50;;
10872;SDS011;34586;53.616;10.032;2022-12-24T09:31:27;5.53;;;4.83;;
10872;SDS011;34586;53.616;10.032;2022-12-24T09:33:53;5.00;;;4.60;;
10872;SDS011;34586;53.616;10.032;2022-12-24T09:36:19;5.43;;;4.93;;
10872;SDS011;34586;53.616;10.032;2022-12-24T09:38:46;5.53;;;5.03;;
10872;SDS011;34586;53.616;10.032;2022-12-24T09:43:43;6.00;;;5.40;;
10872;SDS011;34586;53.616;10.032;2022-12-24T09:46:25;5.40;;;4.90;;
10872;SDS011;34586;53.616;10.032;2022-12-24T09:48:55;5.27;;;4.80;;
10872;SDS011;34586;53.616;10.032;2022-12-24T09:54:12;5.57;;;5.07;;
10872;SDS011;34586;53.616;10.032;2022-12-24T09:56:41;6.27;;;4.77;;
10872;SDS011;34586;53.616;10.032;2022-12-24T09:59:16;6.33;;;5.03;;
10872;SDS011;34586;53.616;10.032;2022-12-24T10:01:45;5.80;;;5.30;;
10872;SDS011;34586;53.616;10.032;2022-12-24T10:04:13;5.97;;;5.27;;
10872;SDS011;34586;53.616;10.032;2022-12-24T10:12:07;5.63;;;5.10;;
10872;SDS011;34586;53.616;10.032;2022-12-24T10:23:32;5.37;;;4.87;;
10872;SDS011;34586;53.616;10.032;2022-12-24T10:26:06;5.00;;;4.50;;
10872;SDS011;34586;53.616;10.032;2022-12-24T10:28:59;4.83;;;4.43;;
10872;SDS011;34586;53.616;10.032;2022-12-24T10:34:35;5.30;;;4.83;;
10872;SDS011;34586;53.616;10.032;2022-12-24T10:37:05;5.67;;;5.17;;
10872;SDS011;34586;53.616;10.032;2022-12-24T10:39:35;5.40;;;4.90;;
10872;SDS011;34586;53.616;10.032;2022-12-24T10:42:01;5.53;;;4.77;;
10872;SDS011;34586;53.616;10.032;2022-12-24T10:44:30;5.40;;;4.93;;
10872;SDS011;34586;53.616;10.032;2022-12-24T10:46:57;5.70;;;4.60;;
10872;SDS011;34586;53.616;10.032;2022-12-24T10:51:55;5.07;;;4.67;;
10872;SDS011;34586;53.616;10.032;2022-12-24T10:54:27;5.77;;;5.27;;
10872;SDS011;34586;53.616;10.032;2022-12-24T10:56:58;6.03;;;5.53;;
10872;SDS011;34586;53.616;10.032;2022-12-24T11:01:54;5.57;;;5.07;;
10872;SDS011;34586;53.616;10.032;2022-12-24T11:04:23;6.00;;;5.50;;
10872;SDS011;34586;53.616;10.032;2022-12-24T11:06:52;6.50;;;5.80;;
10872;SDS011;34586;53.616;10.032;2022-12-24T11:09:22;6.13;;;5.63;;
10872;SDS011;34586;53.616;10.032;2022-12-24T11:11:56;6.57;;;6.00;;
10872;SDS011;34586;53.616;10.032;2022-12-24T11:14:24;6.60;;;6.10;;
10872;SDS011;34586;53.616;10.032;2022-12-24T11:16:57;7.73;;;7.00;;
10872;SDS011;34586;53.616;10.032;2022-12-24T11:19:56;7.37;;;6.67;;
10872;SDS011;34586;53.616;10.032;2022-12-24T11:24:46;7.00;;;6.40;;
10872;SDS011;34586;53.616;10.032;2022-12-24T11:32:43;8.10;;;7.40;;
10872;SDS011;34586;53.616;10.032;2022-12-24T11:35:14;8.60;;;7.63;;
10872;SDS011;34586;53.616;10.032;2022-12-24T11:37:46;7.93;;;7.13;;
10872;SDS011;34586;53.616;10.032;2022-12-24T11:40:24;7.07;;;6.47;;
10872;SDS011;34586;53.616;10.032;2022-12-24T11:43:00;9.20;;;8.30;;
10872;SDS011;34586;53.616;10.032;2022-12-24T11:45:28;8.10;;;7.40;;
10872;SDS011;34586;53.616;10.032;2022-12-24T11:47:56;8.13;;;7.43;;
10872;SDS011;34586;53.616;10.032;2022-12-24T11:52:53;7.70;;;7.00;;
10872;SDS011;34586;53.616;10.032;2022-12-24T12:01:03;8.50;;;7.70;;
10872;SDS011;34586;53.616;10.032;2022-12-24T12:04:14;8.00;;;7.20;;
10872;SDS011;34586;53.616;10.032;2022-12-24T12:06:45;8.10;;;7.27;;
10872;SDS011;34586;53.616;10.032;2022-12-24T12:09:18;7.73;;;7.03;;
10872;SDS011;34586;53.616;10.032;2022-12-24T12:11:49;7.83;;;7.07;;
10872;SDS011;34586;53.616;10.032;2022-12-24T12:14:20;8.07;;;7.13;;
10872;SDS011;34586;53.616;10.032;2022-12-24T12:16:57;8.10;;;7.30;;
10872;SDS011;34586;53.616;10.032;2022-12-24T12:19:25;7.97;;;7.27;;
10872;SDS011;34586;53.616;10.032;2022-12-24T12:21:55;8.67;;;7.87;;
10872;SDS011;34586;53.616;10.032;2022-12-24T12:24:32;8.70;;;7.90;;
10872;SDS011;34586;53.616;10.032;2022-12-24T12:29:54;8.27;;;7.37;;
10872;SDS011;34586;53.616;10.032;2022-12-24T12:32:35;9.57;;;8.03;;
10872;SDS011;34586;53.616;10.032;2022-12-24T12:35:23;8.60;;;7.80;;
10872;SDS011;34586;53.616;10.032;2022-12-24T12:44:00;9.10;;;8.20;;
10872;SDS011;34586;53.616;10.032;2022-12-24T12:46:29;9.80;;;8.10;;
10872;SDS011;34586;53.616;10.032;2022-12-24T12:51:54;18.03;;;9.77;;
10872;SDS011;34586;53.616;10.032;2022-12-24T12:57:16;13.63;;;9.10;;
10872;SDS011;34586;53.616;10.032;2022-12-24T12:59:48;14.50;;;9.70;;
10872;SDS011;34586;53.616;10.032;2022-12-24T13:02:32;15.37;;;9.47;;
10872;SDS011;34586;53.616;10.032;2022-12-24T13:08:03;13.27;;;9.90;;
10872;SDS011;34586;53.616;10.032;2022-12-24T13:13:28;11.23;;;9.83;;
10872;SDS011;34586;53.616;10.032;2022-12-24T13:16:18;13.20;;;9.77;;
10872;SDS011;34586;53.616;10.032;2022-12-24T13:21:41;22.70;;;13.23;;
10872;SDS011;34586;53.616;10.032;2022-12-24T13:24:16;20.70;;;14.03;;
10872;SDS011;34586;53.616;10.032;2022-12-24T13:26:58;19.27;;;11.80;;
10872;SDS011;34586;53.616;10.032;2022-12-24T13:34:49;12.50;;;10.30;;
10872;SDS011;34586;53.616;10.032;2022-12-24T13:37:41;14.07;;;9.87;;
10872;SDS011;34586;53.616;10.032;2022-12-24T13:50:35;16.00;;;10.40;;
10872;SDS011;34586;53.616;10.032;2022-12-24T13:53:04;19.83;;;10.93;;
10872;SDS011;34586;53.616;10.032;2022-12-24T13:55:31;15.80;;;10.93;;
10872;SDS011;34586;53.616;10.032;2022-12-24T13:57:59;20.00;;;11.47;;
10872;SDS011;34586;53.616;10.032;2022-12-24T14:00:33;16.43;;;10.20;;
10872;SDS011;34586;53.616;10.032;2022-12-24T14:08:08;24.17;;;11.37;;
10872;SDS011;34586;53.616;10.032;2022-12-24T14:10:41;15.87;;;10.10;;
10872;SDS011;34586;53.616;10.032;2022-12-24T14:18:39;17.87;;;9.53;;
10872;SDS011;34586;53.616;10.032;2022-12-24T14:21:11;19.00;;;10.23;;
10872;SDS011;34586;53.616;10.032;2022-12-24T14:23:59;22.10;;;9.33;;
10872;SDS011;34586;53.616;10.032;2022-12-24T14:26:35;21.20;;;10.07;;
10872;SDS011;34586;53.616;10.032;2022-12-24T14:29:19;22.97;;;9.90;;
10872;SDS011;34586;53.616;10.032;2022-12-24T14:31:54;16.27;;;9.13;;
10872;SDS011;34586;53.616;10.032;2022-12-24T14:34:21;19.10;;;9.20;;
10872;SDS011;34586;53.616;10.032;2022-12-24T14:36:47;19.20;;;9.70;;
10872;SDS011;34586;53.616;10.032;2022-12-24T14:39:27;19.10;;;9.37;;
10872;SDS011;34586;53.616;10.032;2022-12-24T14:47:34;24.43;;;7.47;;
10872;SDS011;34586;53.616;10.032;2022-12-24T14:55:39;25.73;;;7.00;;
10872;SDS011;34586;53.616;10.032;2022-12-24T15:01:16;26.83;;;8.33;;
10872;SDS011;34586;53.616;10.032;2022-12-24T15:03:44;22.93;;;8.17;;
10872;SDS011;34586;53.616;10.032;2022-12-24T15:06:11;23.67;;;9.07;;
10872;SDS011;34586;53.616;10.032;2022-12-24T15:08:45;20.33;;;9.37;;
10872;SDS011;34586;53.616;10.032;2022-12-24T15:11:15;18.53;;;8.30;;
10872;SDS011;34586;53.616;10.032;2022-12-24T15:13:53;21.17;;;8.07;;
10872;SDS011;34586;53.616;10.032;2022-12-24T15:16:22;20.27;;;8.43;;
10872;SDS011;34586;53.616;10.032;2022-12-24T15:18:56;24.63;;;8.00;;
10872;SDS011;34586;53.616;10.032;2022-12-24T15:21:35;22.60;;;8.07;;
10872;SDS011;34586;53.616;10.032;2022-12-24T15:24:22;19.90;;;8.43;;
10872;SDS011;34586;53.616;10.032;2022-12-24T15:26:49;17.03;;;7.53;;
10872;SDS011;34586;53.616;10.032;2022-12-24T15:29:22;23.63;;;8.60;;
10872;SDS011;34586;53.616;10.032;2022-12-24T15:32:00;18.43;;;8.23;;
10872;SDS011;34586;53.616;10.032;2022-12-24T15:34:34;19.83;;;8.70;;
10872;SDS011;34586;53.616;10.032;2022-12-24T15:39:38;27.37;;;11.93;;
10872;SDS011;34586;53.616;10.032;2022-12-24T15:42:05;35.60;;;16.00;;
10872;SDS011;34586;53.616;10.032;2022-12-24T15:44:43;29.03;;;14.50;;
10872;SDS011;34586;53.616;10.032;2022-12-24T15:47:19;30.03;;;14.43;;
10872;SDS011;34586;53.616;10.032;2022-12-24T15:49:52;28.47;;;12.97;;
10872;SDS011;34586;53.616;10.032;2022-12-24T15:52:19;25.70;;;12.23;;
10872;SDS011;34586;53.616;10.032;2022-12-24T15:54:48;29.57;;;11.80;;
10872;SDS011;34586;53.616;10.032;2022-12-24T15:57:25;21.63;;;11.30;;
10872;SDS011;34586;53.616;10.032;2022-12-24T15:59:55;27.97;;;9.27;;
10872;SDS011;34586;53.616;10.032;2022-12-24T16:05:16;30.23;;;11.10;;
10872;SDS011;34586;53.616;10.032;2022-12-24T16:08:01;31.53;;;10.23;;
10872;SDS011;34586;53.616;10.032;2022-12-24T16:10:40;24.77;;;9.87;;
10872;SDS011;34586;53.616;10.032;2022-12-24T16:13:11;26.10;;;9.07;;
10872;SDS011;34586;53.616;10.032;2022-12-24T16:16:05;30.10;;;8.47;;
10872;SDS011;34586;53.616;10.032;2022-12-24T16:18:40;26.43;;;8.40;;
10872;SDS011;34586;53.616;10.032;2022-12-24T16:21:22;20.30;;;8.00;;
10872;SDS011;34586;53.616;10.032;2022-12-24T16:23:54;33.57;;;8.77;;
10872;SDS011;34586;53.616;10.032;2022-12-24T16:26:22;26.83;;;8.37;;
10872;SDS011;34586;53.616;10.032;2022-12-24T16:28:48;24.23;;;8.07;;
10872;SDS011;34586;53.616;10.032;2022-12-24T16:31:18;27.00;;;8.67;;
10872;SDS011;34586;53.616;10.032;2022-12-24T16:33:53;24.47;;;8.20;;
10872;SDS011;34586;53.616;10.032;2022-12-24T16:36:21;27.93;;;8.27;;
10872;SDS011;34586;53.616;10.032;2022-12-24T16:38:46;22.47;;;7.47;;
10872;SDS011;34586;53.616;10.032;2022-12-24T16:41:31;29.17;;;8.17;;
10872;SDS011;34586;53.616;10.032;2022-12-24T16:44:16;23.70;;;7.87;;
10872;SDS011;34586;53.616;10.032;2022-12-24T16:46:42;22.57;;;7.80;;
10872;SDS011;34586;53.616;10.032;2022-12-24T16:49:10;20.90;;;7.60;;
10872;SDS011;34586;53.616;10.032;2022-12-24T16:51:46;23.63;;;7.90;;
10872;SDS011;34586;53.616;10.032;2022-12-24T16:54:12;21.97;;;8.40;;
10872;SDS011;34586;53.616;10.032;2022-12-24T16:56:39;22.27;;;7.93;;